Time;durP1;ratioP1;P1;durP2;ratioP2;P2;SDS_P1;SDS_P2;PMS_P1;PMS_P2;Temp;Humidity;BMP_temperature;BMP_pressure;BME280_temperature;BME280_humidity;BME280_pressure;Samples;Min_cycle;Max_cycle;Signal;HPM_P1;HPM_P2
2022/08/22 00:01:59;;;;;;;;;;;;;;;19.13;100.00;99243.39;1684814;84;21088;-67
2022/08/22 00:04:53;;;;;;;28.05;6.62;;;;;;;19.11;100.00;99242.12;1689807;84;20219;-67
2022/08/22 00:07:49;;;;;;;40.70;6.65;;;;;;;19.06;100.00;99244.52;1696056;84;21091;-66
2022/08/22 00:10:30;;;;;;;26.30;5.90;;;;;;;19.06;100.00;99243.13;1689249;84;21124;-66
2022/08/22 00:13:06;;;;;;;30.25;6.65;;;;;;;19.00;100.00;99241.74;1689874;84;21642;-66
2022/08/22 00:15:37;;;;;;;;;;;;;;;18.98;100.00;99251.52;1697926;84;21045;-66
2022/08/22 00:18:34;;;;;;;31.40;5.67;;;;;;;18.96;100.00;99239.42;1691571;84;20125;-66
2022/08/22 00:21:16;;;;;;;28.00;6.40;;;;;;;18.91;100.00;99240.22;1697237;84;21013;-67
2022/08/22 00:24:13;;;;;;;32.70;6.33;;;;;;;18.86;100.00;99242.03;1701564;84;21025;-67
2022/08/22 00:26:45;;;;;;;28.45;5.80;;;;;;;18.84;100.00;99241.58;1695765;84;21037;-67
2022/08/22 00:29:40;;;;;;;30.05;6.03;;;;;;;18.85;100.00;99250.06;1692544;84;21126;-66
2022/08/22 00:32:25;;;;;;;29.32;6.03;;;;;;;18.87;100.00;99245.03;1703667;84;21053;-67
2022/08/22 00:35:04;;;;;;;32.63;6.53;;;;;;;18.91;100.00;99243.78;1695435;84;21398;-67
2022/08/22 00:37:39;;;;;;;32.25;6.58;;;;;;;18.92;100.00;99247.36;1686990;84;21107;-66
2022/08/22 00:40:30;;;;;;;28.75;5.87;;;;;;;18.90;100.00;99253.20;1708446;84;21053;-67
2022/08/22 00:43:26;;;;;;;34.45;6.08;;;;;;;18.84;100.00;99252.61;1663696;84;21639;-66
2022/08/22 00:46:23;;;;;;;25.43;5.80;;;;;;;18.86;100.00;99256.39;1692247;84;21092;-67
2022/08/22 00:49:25;;;;;;;30.48;5.90;;;;;;;18.84;100.00;99256.75;1675220;84;21707;-67
2022/08/22 00:52:15;;;;;;;30.72;5.97;;;;;;;18.77;100.00;99254.30;1732836;82;21595;-66
2022/08/22 00:55:22;;;;;;;27.93;6.20;;;;;;;18.70;100.00;99251.27;1694243;82;21518;-66
2022/08/22 00:58:09;;;;;;;23.12;5.97;;;;;;;18.64;100.00;99252.59;1728815;82;21161;-68
2022/08/22 01:00:52;;;;;;;28.02;5.92;;;;;;;18.54;100.00;99250.25;1731558;82;21015;-68
2022/08/22 01:03:51;;;;;;;31.85;6.58;;;;;;;18.49;100.00;99252.63;1716852;82;21138;-68
2022/08/22 01:06:33;;;;;;;28.80;6.35;;;;;;;18.49;100.00;99255.38;1708963;81;21530;-68
2022/08/22 01:09:14;;;;;;;30.32;5.75;;;;;;;18.46;100.00;99251.89;1716678;82;21090;-68
2022/08/22 01:12:30;;;;;;;32.42;7.03;;;;;;;18.44;100.00;99256.94;1713778;82;21011;-68
2022/08/22 01:15:09;;;;;;;28.92;5.62;;;;;;;18.46;100.00;99253.27;1730338;82;20993;-68
2022/08/22 01:18:16;;;;;;;27.48;5.80;;;;;;;18.50;100.00;99255.59;1728122;82;21099;-68
2022/08/22 01:20:54;;;;;;;38.20;6.00;;;;;;;18.54;100.00;99247.48;1652182;86;20997;-68
2022/08/22 01:23:51;;;;;;;24.80;5.33;;;;;;;18.58;100.00;99255.33;1654579;86;21089;-67
2022/08/22 01:26:42;;;;;;;32.38;5.85;;;;;;;18.60;100.00;99255.22;1692214;82;20982;-68
2022/08/22 01:29:23;;;;;;;30.70;6.22;;;;;;;18.56;100.00;99257.62;1718576;82;21036;-68
2022/08/22 01:32:24;;;;;;;27.95;5.40;;;;;;;18.53;100.00;99258.30;1716959;82;21639;-68
2022/08/22 01:35:25;;;;;;;27.90;5.47;;;;;;;18.54;100.00;99259.33;1718754;82;21056;-68
2022/08/22 01:38:12;;;;;;;24.05;5.47;;;;;;;18.56;100.00;99267.27;1714741;82;21102;-68
2022/08/22 01:41:10;;;;;;;28.30;5.37;;;;;;;18.57;100.00;99266.11;1708969;82;21059;-68
2022/08/22 01:44:19;;;;;;;23.05;5.60;;;;;;;18.53;100.00;99263.81;1727634;82;21075;-68
2022/08/22 01:46:59;;;;;;;31.80;6.45;;;;;;;18.35;100.00;99257.58;1670930;82;21696;-68
2022/08/22 01:49:40;;;;;;;27.25;6.53;;;;;;;18.22;100.00;99255.30;1711047;82;21063;-68
2022/08/22 01:52:14;;;;;;;25.82;5.87;;;;;;;18.23;100.00;99271.27;1712723;82;21039;-68
2022/08/22 01:54:52;;;;;;;29.20;6.20;;;;;;;18.23;100.00;99268.51;1716778;82;21015;-68
2022/08/22 01:57:19;;;;;;;36.55;5.80;;;;;;;18.22;100.00;99269.08;1721716;82;21131;-67
2022/08/22 01:59:49;;;;;;;34.55;5.87;;;;;;;18.17;100.00;99265.72;1730386;81;21482;-68
2022/08/22 02:02:39;;;;;;;27.00;5.90;;;;;;;18.14;100.00;99264.41;1717429;82;21066;-68
2022/08/22 02:05:23;;;;;;;33.18;5.47;;;;;;;18.17;100.00;99271.23;1724689;82;21008;-68
2022/08/22 02:08:45;;;;;;;30.15;6.12;;;;;;;18.18;100.00;99263.98;1723024;82;21095;-68
2022/08/22 02:11:54;;;;;;;23.05;5.70;;;;;;;18.14;100.00;99265.01;1702765;82;21059;-68
2022/08/22 02:14:35;;;;;;;24.50;5.20;;;;;;;18.09;100.00;99266.56;1657474;85;21905;-68
2022/08/22 02:17:22;;;;;;;26.73;6.03;;;;;;;17.99;100.00;99269.13;1668240;85;21562;-68
2022/08/22 02:20:12;;;;;;;30.45;5.78;;;;;;;17.96;100.00;99271.74;1701358;82;21327;-68
2022/08/22 02:22:55;;;;;;;32.95;6.53;;;;;;;17.91;100.00;99274.11;1704228;82;21090;-67
2022/08/22 02:25:36;;;;;;;30.77;5.58;;;;;;;17.86;100.00;99272.90;1726168;82;21019;-67
2022/08/22 02:28:12;;;;;;;24.27;5.70;;;;;;;17.89;100.00;99281.87;1719123;82;21114;-67
2022/08/22 02:30:53;;;;;;;28.00;5.95;;;;;;;17.93;100.00;99280.08;1722151;82;21542;-67
2022/08/22 02:33:48;;;;;;;24.40;5.58;;;;;;;18.00;100.00;99286.44;1716136;82;21051;-67
2022/08/22 02:36:41;;;;;;;26.60;5.65;;;;;;;18.05;100.00;99287.08;1738037;82;20995;-67
2022/08/22 02:39:35;;;;;;;23.60;5.40;;;;;;;18.02;100.00;99286.37;1724679;82;21062;-67
2022/08/22 02:42:25;;;;;;;21.27;5.05;;;;;;;17.97;100.00;99283.78;1724503;82;22143;-67
2022/08/22 02:45:25;;;;;;;21.75;5.37;;;;;;;17.92;100.00;99282.61;1721161;82;21533;-67
2022/08/22 02:48:20;;;;;;;21.95;5.20;;;;;;;17.88;100.00;99287.16;1735209;82;22163;-68
2022/08/22 02:50:55;;;;;;;31.82;6.53;;;;;;;17.83;100.00;99291.46;1687906;82;21545;-68
2022/08/22 02:53:36;;;;;;;28.95;5.70;;;;;;;17.83;100.00;99291.46;1727766;82;21027;-68
2022/08/22 02:56:34;;;;;;;21.75;5.33;;;;;;;17.83;100.00;99288.14;1725461;82;21928;-68
2022/08/22 02:59:27;;;;;;;27.45;5.92;;;;;;;17.87;100.00;99287.73;1716625;82;22311;-68
2022/08/22 03:01:54;;;;;;;29.10;6.67;;;;;;;17.86;100.00;99289.42;1729333;82;21553;-68
2022/08/22 03:04:41;;;;;;;30.95;6.90;;;;;;;17.84;100.00;99302.16;1723533;82;21113;-68
2022/08/22 03:07:15;;;;;;;28.83;6.53;;;;;;;17.82;100.00;99299.47;1720571;82;21055;-68
2022/08/22 03:10:17;;;;;;;29.12;6.37;;;;;;;17.83;100.00;99300.53;1728068;82;21057;-68
2022/08/22 03:13:09;;;;;;;26.90;5.92;;;;;;;17.85;100.00;99304.34;1718073;82;21097;-68
2022/08/22 03:15:46;;;;;;;26.35;5.92;;;;;;;17.86;100.00;99297.68;1720247;82;21540;-68
2022/08/22 03:18:46;;;;;;;28.92;6.60;;;;;;;17.85;100.00;99302.97;1722944;82;21063;-68
2022/08/22 03:21:46;;;;;;;26.70;6.60;;;;;;;17.84;100.00;99306.85;1725163;82;21427;-68
2022/08/22 03:24:44;;;;;;;41.13;18.00;;;;;;;17.86;100.00;99308.69;1726492;82;21039;-67
2022/08/22 03:27:25;;;;;;;42.45;23.27;;;;;;;17.78;100.00;99296.57;1738660;82;20968;-67
2022/08/22 03:29:59;;;;;;;45.60;17.82;;;;;;;17.74;100.00;99310.78;1731423;82;20959;-67
2022/08/22 03:32:53;;;;;;;47.25;21.40;;;;;;;17.78;100.00;99316.44;1729727;82;21110;-68
2022/08/22 03:35:48;;;;;;;35.90;17.00;;;;;;;17.81;100.00;99314.40;1705821;82;20975;-67
2022/08/22 03:38:38;;;;;;;37.65;16.52;;;;;;;17.85;100.00;99313.39;1724063;82;21125;-67
2022/08/22 03:41:32;;;;;;;33.67;13.80;;;;;;;17.91;100.00;99316.78;1716225;82;21095;-67
2022/08/22 03:44:10;;;;;;;36.15;12.85;;;;;;;17.92;100.00;99318.41;1733375;82;21125;-67
2022/08/22 03:47:06;;;;;;;33.18;15.93;;;;;;;17.90;100.00;99316.53;1722223;82;21007;-67
2022/08/22 03:50:01;;;;;;;29.07;10.90;;;;;;;17.92;100.00;99319.78;1701013;82;21053;-67
2022/08/22 03:53:06;;;;;;;36.38;11.57;;;;;;;18.00;100.00;99319.48;1720184;82;21074;-67
2022/08/22 03:55:53;;;;;;;29.07;10.10;;;;;;;18.06;100.00;99331.39;1722627;82;21074;-67
2022/08/22 03:58:37;;;;;;;32.78;8.95;;;;;;;18.10;100.00;99332.34;1718829;82;21432;-67
2022/08/22 04:01:09;;;;;;;29.02;8.85;;;;;;;18.18;100.00;99338.37;1726072;82;21019;-68
2022/08/22 04:04:20;;;;;;;26.55;7.90;;;;;;;18.25;100.00;99336.47;1731790;82;21613;-67
2022/08/22 04:07:15;;;;;;;25.92;6.55;;;;;;;18.35;100.00;99345.16;1714258;82;21008;-67
2022/08/22 04:10:16;;;;;;;22.62;5.95;;;;;;;18.53;100.00;99338.23;1726280;82;21044;-68
2022/08/22 04:13:23;;;;;;;20.55;5.47;;;;;;;18.71;100.00;99345.23;1703136;82;21087;-68
2022/08/22 04:16:01;;;;;;;22.13;5.90;;;;;;;18.80;100.00;99343.23;1719152;82;21043;-67
2022/08/22 04:18:46;;;;;;;26.02;5.60;;;;;;;18.96;100.00;99350.31;1714011;82;21154;-67
2022/08/22 04:21:39;;;;;;;19.77;5.37;;;;;;;19.12;100.00;99345.82;1719062;82;21522;-68
2022/08/22 04:24:35;;;;;;;23.73;5.70;;;;;;;19.24;100.00;99342.53;1725593;82;21063;-68
2022/08/22 04:27:19;;;;;;;28.00;5.78;;;;;;;19.40;100.00;99339.97;1720319;82;21031;-67
2022/08/22 04:30:14;;;;;;;27.40;5.58;;;;;;;19.57;100.00;99343.16;1721416;82;21047;-70
2022/08/22 04:32:44;;;;;;;33.67;6.42;;;;;;;19.87;100.00;99348.17;1720040;82;21082;-68
2022/08/22 04:35:28;;;;;;;27.60;5.67;;;;;;;20.20;100.00;99347.30;1720231;82;21051;-67
2022/08/22 04:38:10;;;;;;;22.02;5.37;;;;;;;20.34;100.00;99325.67;1716028;82;21107;-68
2022/08/22 04:40:42;;;;;;;25.17;5.17;;;;;;;20.45;100.00;99322.67;1717984;82;21708;-67
2022/08/22 04:43:14;;;;;;;22.35;5.08;;;;;;;20.53;100.00;99324.52;1717660;82;21609;-67
2022/08/22 04:45:46;;;;;;;23.18;5.55;;;;;;;20.65;100.00;99330.02;1725560;82;21094;-67
2022/08/22 04:48:40;;;;;;;22.45;5.08;;;;;;;20.83;100.00;99325.06;1722304;82;21071;-66
2022/08/22 04:51:21;;;;;;;28.60;6.33;;;;;;;20.95;100.00;99322.81;1718354;82;21080;-67
2022/08/22 04:54:27;;;;;;;26.12;5.55;;;;;;;21.12;100.00;99323.37;1723923;82;21577;-67
2022/08/22 04:57:40;;;;;;;26.90;5.65;;;;;;;21.36;100.00;99323.06;1736460;82;21067;-66
2022/08/22 05:00:09;;;;;;;24.50;5.83;;;;;;;21.44;100.00;99312.39;1711242;82;21138;-66
2022/08/22 05:02:37;;;;;;;21.82;5.67;;;;;;;21.37;100.00;99310.81;1708193;82;21561;-66
2022/08/22 05:05:13;;;;;;;25.72;4.90;;;;;;;21.41;100.00;99313.91;1711495;82;21051;-66
2022/08/22 05:07:47;;;;;;;24.87;4.92;;;;;;;21.53;100.00;99320.78;1737413;82;21696;-65
2022/08/22 05:10:18;;;;;;;20.70;5.33;;;;;;;21.68;100.00;99309.52;1717484;82;21637;-66
2022/08/22 05:12:49;;;;;;;25.70;5.30;;;;;;;21.78;100.00;99314.52;1709322;84;21043;-66
2022/08/22 05:15:20;;;;;;;22.15;5.15;;;;;;;21.83;100.00;99315.05;1710142;82;21039;-66
2022/08/22 05:17:48;;;;;;;19.82;5.17;;;;;;;21.86;100.00;99313.52;1710697;82;21570;-67
2022/08/22 05:20:20;;;;;;;21.85;5.37;;;;;;;22.03;100.00;99313.81;1709042;83;21063;-67
2022/08/22 05:22:51;;;;;;;18.95;5.40;;;;;;;22.17;100.00;99308.62;1709441;83;21059;-67
2022/08/22 05:25:21;;;;;;;23.40;5.53;;;;;;;22.32;100.00;99300.84;1715736;82;21012;-67
2022/08/22 05:27:50;;;;;;;28.27;5.40;;;;;;;22.50;100.00;99317.90;1722148;82;21118;-66
2022/08/22 05:30:24;;;;;;;21.77;4.83;;;;;;;22.65;100.00;99305.39;1692846;84;21054;-67
2022/08/22 05:33:17;;;;;;;17.90;5.78;;;;;;;22.65;100.00;99305.39;1718231;82;21028;-66
2022/08/22 05:35:51;;;;;;;21.75;5.20;;;;;;;22.83;100.00;99309.98;1718838;82;21091;-66
2022/08/22 05:38:21;;;;;;;22.55;5.90;;;;;;;22.77;100.00;99311.44;1718453;82;22212;-66
2022/08/22 05:40:53;;;;;;;23.02;5.17;;;;;;;22.76;100.00;99304.28;1726086;82;21583;-67
2022/08/22 05:43:20;;;;;;;18.23;4.83;;;;;;;22.71;100.00;99312.87;1721911;82;21142;-68
2022/08/22 05:45:46;;;;;;;20.82;5.35;;;;;;;22.85;100.00;99315.18;1714678;82;21577;-67
2022/08/22 05:48:17;;;;;;;22.32;5.30;;;;;;;22.98;100.00;99313.88;1715218;82;21066;-68
2022/08/22 05:50:54;;;;;;;16.67;4.40;;;;;;;23.18;100.00;99313.51;1726586;82;21059;-67
2022/08/22 05:53:33;;;;;;;19.70;4.62;;;;;;;23.36;100.00;99312.48;1730820;82;21577;-67
2022/08/22 05:56:32;;;;;;;18.37;4.90;;;;;;;23.55;100.00;99319.44;1722349;82;21107;-66
2022/08/22 05:59:13;;;;;;;25.40;5.62;;;;;;;23.83;100.00;99310.83;1706980;82;21076;-67
2022/08/22 06:01:54;;;;;;;19.60;5.35;;;;;;;23.96;100.00;99314.21;1717244;82;21095;-67
2022/08/22 06:04:30;;;;;;;21.57;5.95;;;;;;;23.85;100.00;99313.22;1715908;82;21083;-67
2022/08/22 06:07:02;;;;;;;22.40;5.08;;;;;;;23.84;100.00;99318.00;1724421;82;21011;-67
2022/08/22 06:09:46;;;;;;;19.32;5.42;;;;;;;24.10;100.00;99323.60;1711981;82;21150;-67
2022/08/22 06:12:35;;;;;;;20.92;5.22;;;;;;;24.31;100.00;99319.59;1684005;84;21121;-68
2022/08/22 06:15:24;;;;;;;18.23;5.20;;;;;;;24.28;100.00;99311.41;1718378;82;21023;-67
2022/08/22 06:17:52;;;;;;;;;;;;;;;24.28;100.00;99312.80;1710522;83;21361;-67
2022/08/22 06:20:29;;;;;;;26.27;5.70;;;;;;;24.26;100.00;99311.00;1707846;84;21012;-68
2022/08/22 06:22:59;;;;;;;26.25;5.60;;;;;;;24.33;100.00;99315.28;1707462;83;21056;-68
2022/08/22 06:25:36;;;;;;;18.80;4.22;;;;;;;24.52;100.00;99312.97;1676885;84;21059;-67
2022/08/22 06:28:07;;;;;;;23.52;5.25;;;;;;;24.55;100.00;99315.03;1673554;86;21082;-68
2022/08/22 06:30:36;;;;;;;24.12;4.97;;;;;;;24.61;100.00;99322.67;1657057;86;21113;-68
2022/08/22 06:33:06;;;;;;;22.20;5.33;;;;;;;24.64;100.00;99315.55;1707678;84;21147;-68
2022/08/22 06:38:48;;;;;;;22.05;5.28;;;;;;;24.88;100.00;99312.34;1707788;83;21091;-69
2022/08/22 06:41:14;;;;;;;24.20;5.20;;;;;;;25.11;100.00;99309.47;1708912;82;21095;-68
2022/08/22 06:43:42;;;;;;;22.25;5.42;;;;;;;25.28;100.00;99313.64;1707896;84;21177;-67
2022/08/22 06:46:08;;;;;;;20.65;5.10;;;;;;;25.41;100.00;99311.61;1708144;84;21078;-69
2022/08/22 06:48:35;;;;;;;19.17;5.35;;;;;;;25.47;100.00;99312.09;1709409;82;21158;-69
2022/08/22 06:51:01;;;;;;;15.15;4.55;;;;;;;25.59;100.00;99312.64;1708165;84;21114;-70
2022/08/22 06:53:39;;;;;;;19.92;4.70;;;;;;;25.62;100.00;99311.88;1707979;84;21895;-68
2022/08/22 06:56:06;;;;;;;20.30;4.33;;;;;;;25.66;100.00;99300.17;1708089;84;21082;-67
2022/08/22 06:58:44;;;;;;;22.95;5.28;;;;;;;25.79;100.00;99302.08;1711991;82;21079;-68
2022/08/22 07:01:23;;;;;;;16.87;4.60;;;;;;;25.85;100.00;99297.78;1722601;83;21061;-70
2022/08/22 07:03:53;;;;;;;25.12;4.75;;;;;;;25.85;100.00;99298.38;1722450;82;21171;-68
2022/08/22 07:06:42;;;;;;;21.45;4.62;;;;;;;25.74;100.00;99299.66;1722665;83;21077;-69
2022/08/22 07:09:25;;;;;;;18.87;4.22;;;;;;;25.77;100.00;99299.48;1737259;82;21075;-69
2022/08/22 07:11:53;;;;;;;18.77;3.90;;;;;;;25.67;100.00;99299.00;1717128;82;21028;-69
2022/08/22 07:14:42;;;;;;;20.82;4.62;;;;;;;25.82;100.00;99301.93;1717960;82;21032;-68
2022/08/22 07:18:20;;;;;;;21.85;3.60;;;;;;;26.15;100.00;99299.83;1800051;78;22852;-67
2022/08/22 07:20:51;;;;;;;18.35;4.10;;;;;;;26.26;100.00;99287.98;1752230;82;21012;-68
2022/08/22 07:23:43;;;;;;;13.13;2.83;;;;;;;26.32;100.00;99296.22;1751990;82;21039;-67
2022/08/22 07:26:30;;;;;;;26.50;3.25;;;;;;;26.37;100.00;99288.27;1728895;82;21125;-67
2022/08/22 07:29:20;;;;;;;17.80;3.30;;;;;;;26.49;100.00;99284.37;1721426;83;21138;-67
2022/08/22 07:32:16;;;;;;;15.00;3.40;;;;;;;26.64;100.00;99277.08;1720935;83;21133;-68
2022/08/22 07:35:12;;;;;;;13.65;3.45;;;;;;;26.85;100.00;99283.44;1721531;82;20963;-67
2022/08/22 07:38:08;;;;;;;16.20;3.42;;;;;;;27.10;100.00;99269.59;1722364;82;21100;-69
2022/08/22 07:40:59;;;;;;;14.75;3.17;;;;;;;27.28;100.00;99278.80;1736871;82;21556;-67
2022/08/22 07:43:43;;;;;;;20.88;3.75;;;;;;;27.16;100.00;99276.38;1736411;82;21076;-68
2022/08/22 07:46:30;;;;;;;16.52;3.50;;;;;;;27.12;100.00;99276.96;1721485;83;21125;-67
2022/08/22 07:49:19;;;;;;;17.95;3.75;;;;;;;27.17;100.00;99270.38;1721128;83;22385;-67
2022/08/22 07:51:52;;;;;;;19.57;3.72;;;;;;;27.24;100.00;99273.02;1721049;83;21631;-69
2022/08/22 07:54:40;;;;;;;16.48;3.30;;;;;;;27.35;100.00;99269.67;1722292;82;21680;-68
2022/08/22 08:00:52;;;;;;;;;;;;;;;27.41;100.00;99270.28;1802288;79;23027;-68
2022/08/22 08:03:24;;;;;;;13.58;2.90;;;;;;;27.37;100.00;99271.45;1749126;81;20569;-68
2022/08/22 08:05:51;;;;;;;21.20;3.15;;;;;;;27.38;100.00;99271.08;1722749;83;20983;-68
2022/08/22 08:08:30;;;;;;;19.87;3.05;;;;;;;27.54;100.00;99270.73;1722625;83;21026;-68
2022/08/22 08:10:57;;;;;;;16.97;3.17;;;;;;;27.61;100.00;99267.95;1695024;83;20956;-68
2022/08/22 08:13:36;;;;;;;20.88;3.55;;;;;;;27.47;100.00;99274.91;1726234;82;21107;-70
2022/08/22 08:16:05;;;;;;;19.82;3.80;;;;;;;27.37;100.00;99265.27;1751125;82;21034;-69
2022/08/22 08:18:33;;;;;;;15.95;3.00;;;;;;;27.34;100.00;99265.27;1721761;82;21074;-67
2022/08/22 08:21:04;;;;;;;17.37;3.30;;;;;;;27.41;100.00;99270.88;1751256;82;21043;-68
2022/08/22 08:23:44;;;;;;;16.30;3.40;;;;;;;27.48;100.00;99271.73;1731251;82;21123;-67
2022/08/22 08:26:17;;;;;;;16.05;2.98;;;;;;;27.59;100.00;99272.55;1721393;83;22151;-68
2022/08/22 19:34:42;;;;;;;44.10;6.67;;;;;;;21.17;100.00;99384.02;1764119;81;23604;-65
2022/08/22 19:37:22;;;;;;;45.12;7.67;;;;;;;21.13;100.00;99391.41;1747696;82;21077;-65
2022/08/22 19:40:06;;;;;;;36.63;6.37;;;;;;;21.20;100.00;99386.66;1744522;82;21054;-66
2022/08/22 19:42:36;;;;;;;48.38;7.33;;;;;;;21.28;100.00;99389.88;1745751;82;21109;-67
2022/08/22 19:45:24;;;;;;;50.55;7.22;;;;;;;21.33;100.00;99384.88;1746616;81;21014;-67
2022/08/22 19:48:05;;;;;;;48.23;6.92;;;;;;;21.45;100.00;99380.47;1721637;82;21469;-67
2022/08/22 19:50:34;;;;;;;49.23;7.50;;;;;;;21.52;100.00;99382.05;1718135;83;21023;-66
2022/08/22 19:53:26;;;;;;;44.23;6.20;;;;;;;21.57;100.00;99377.66;1729943;82;21087;-67
2022/08/22 19:56:17;;;;;;;37.98;6.08;;;;;;;21.59;100.00;99388.60;1736048;82;21000;-68
2022/08/22 19:59:30;;;;;;;47.23;7.17;;;;;;;21.61;100.00;99391.03;1726570;82;21083;-68
2022/08/22 20:02:26;;;;;;;38.45;6.33;;;;;;;21.62;100.00;99390.66;1738322;82;21030;-66
2022/08/22 20:05:26;;;;;;;60.50;7.55;;;;;;;21.63;100.00;99387.31;1642532;87;21083;-68
2022/08/22 20:08:19;;;;;;;43.75;7.25;;;;;;;21.63;100.00;99381.20;1717408;83;21094;-66
2022/08/22 20:11:06;;;;;;;48.38;6.78;;;;;;;21.63;100.00;99381.20;1734308;82;21617;-65
2022/08/22 20:13:33;;;;;;;;;;;;;;;21.69;100.00;99383.94;1725744;82;21102;-66
2022/08/22 20:16:23;;;;;;;51.23;6.70;;;;;;;21.67;100.00;99388.22;1752768;80;20146;-64
2022/08/22 20:19:08;;;;;;;40.03;6.47;;;;;;;21.58;100.00;99386.98;1713219;82;21043;-66
2022/08/22 20:21:43;;;;;;;47.90;6.47;;;;;;;21.58;100.00;99391.70;1721012;82;21046;-66
2022/08/22 20:24:33;;;;;;;37.95;6.70;;;;;;;21.55;100.00;99389.08;1730215;82;21027;-68
2022/08/22 20:27:02;;;;;;;40.30;5.70;;;;;;;21.54;100.00;99393.60;1735350;81;20984;-67
2022/08/22 20:29:33;;;;;;;48.38;6.45;;;;;;;21.50;100.00;99394.07;1728988;82;21886;-66
2022/08/22 20:32:02;;;;;;;46.92;6.95;;;;;;;21.51;100.00;99388.16;1718768;82;21042;-66
2022/08/22 20:34:30;;;;;;;44.33;6.53;;;;;;;21.55;100.00;99393.80;1711192;81;21086;-67
2022/08/22 20:36:57;;;;;;;51.55;7.00;;;;;;;21.50;100.00;99399.61;1751987;81;21434;-67
2022/08/22 20:39:27;;;;;;;40.00;6.62;;;;;;;21.41;100.00;99393.40;1739975;81;21066;-66
2022/08/22 20:42:01;;;;;;;48.35;7.10;;;;;;;21.33;100.00;99404.27;1758117;81;21381;-68
2022/08/22 20:44:31;;;;;;;43.73;6.62;;;;;;;21.27;100.00;99397.38;1753795;81;21371;-67
2022/08/22 20:47:05;;;;;;;35.10;6.17;;;;;;;21.27;100.00;99402.91;1743420;81;20994;-67
2022/08/22 20:49:43;;;;;;;50.90;6.72;;;;;;;21.25;100.00;99402.47;1729716;81;21081;-67
2022/08/22 20:52:30;;;;;;;44.08;5.70;;;;;;;21.21;100.00;99398.78;1751113;81;21497;-67
2022/08/22 20:55:05;;;;;;;48.70;7.33;;;;;;;21.21;100.00;99402.12;1736328;81;21034;-67
2022/08/22 20:57:33;;;;;;;44.48;6.50;;;;;;;21.21;100.00;99404.89;1747615;80;21526;-67
2022/08/22 21:00:12;;;;;;;47.80;6.65;;;;;;;21.26;100.00;99406.02;1755480;81;21058;-68
2022/08/22 21:03:04;;;;;;;42.27;6.28;;;;;;;21.31;100.00;99408.55;1755156;81;21627;-66
2022/08/22 21:05:42;;;;;;;45.25;6.72;;;;;;;21.29;100.00;99406.12;1745026;81;21094;-67
2022/08/22 21:08:15;;;;;;;31.85;5.53;;;;;;;21.26;100.00;99411.55;1755273;81;21081;-66
2022/08/22 21:13:33;;;;;;;38.08;5.95;;;;;;;21.25;100.00;99413.54;1756900;81;21074;-68
2022/08/22 21:16:14;;;;;;;36.95;6.35;;;;;;;21.21;100.00;99415.96;1735132;81;21538;-68
2022/08/22 21:18:47;;;;;;;45.90;7.12;;;;;;;21.17;100.00;99417.24;1742951;81;22016;-66
2022/08/22 21:21:27;;;;;;;37.85;6.70;;;;;;;21.14;100.00;99417.94;1736630;81;21030;-67
2022/08/22 21:24:03;;;;;;;40.88;6.75;;;;;;;21.14;100.00;99410.22;1741581;81;21101;-67
2022/08/22 21:26:35;;;;;;;42.53;6.03;;;;;;;21.06;100.00;99409.16;1741523;81;21478;-67
2022/08/22 21:29:08;;;;;;;40.17;7.67;;;;;;;21.02;100.00;99404.66;1741560;81;21027;-67
2022/08/22 21:32:01;;;;;;;51.55;7.08;;;;;;;20.97;100.00;99411.27;1742991;81;22298;-67
2022/08/22 21:34:30;;;;;;;49.85;8.48;;;;;;;20.97;100.00;99409.88;1724240;81;21105;-67
2022/08/22 21:37:10;;;;;;;40.35;7.25;;;;;;;20.98;100.00;99403.17;1731580;82;21071;-67
2022/08/22 21:39:50;;;;;;;35.83;6.42;;;;;;;20.97;100.00;99404.34;1725887;82;21724;-68
2022/08/22 21:42:25;;;;;;;42.67;7.30;;;;;;;20.96;100.00;99399.14;1722816;82;21019;-67
2022/08/22 21:45:01;;;;;;;33.67;6.60;;;;;;;20.95;100.00;99403.06;1732419;82;21038;-66
2022/08/22 21:47:32;;;;;;;45.03;7.25;;;;;;;20.98;100.00;99399.59;1714188;82;21042;-67
2022/08/22 21:50:14;;;;;;;44.05;8.23;;;;;;;20.98;100.00;99393.48;1737298;82;21659;-68
2022/08/22 21:52:45;;;;;;;33.40;6.67;;;;;;;20.96;100.00;99393.61;1740519;80;21090;-68
2022/08/22 21:55:17;;;;;;;36.88;7.45;;;;;;;20.92;100.00;99393.50;1731427;82;21046;-68
2022/08/22 21:57:44;;;;;;;42.73;7.35;;;;;;;20.90;100.00;99393.05;1730419;82;21079;-68
2022/08/22 22:00:39;;;;;;;39.65;7.37;;;;;;;20.87;100.00;99392.95;1735853;82;21055;-68
2022/08/22 22:03:06;;;;;;;34.58;6.90;;;;;;;20.86;100.00;99390.75;1727742;82;21063;-68
2022/08/22 22:05:34;;;;;;;43.23;8.15;;;;;;;20.85;100.00;99384.98;1723924;82;21573;-68
2022/08/22 22:08:01;;;;;;;45.98;7.90;;;;;;;20.80;100.00;99388.78;1736162;82;21067;-68
2022/08/22 22:10:27;;;;;;;39.88;7.83;;;;;;;20.77;100.00;99378.98;1733676;82;21067;-68
2022/08/22 22:12:55;;;;;;;36.75;7.15;;;;;;;20.74;100.00;99376.35;1741268;82;21441;-67
2022/08/22 22:15:25;;;;;;;30.82;6.97;;;;;;;20.73;100.00;99375.30;1742892;82;21095;-68
2022/08/22 22:17:51;;;;;;;35.78;6.97;;;;;;;20.75;100.00;99375.78;1733881;82;21094;-67
2022/08/22 22:20:19;;;;;;;32.65;7.67;;;;;;;20.77;100.00;99375.66;1725917;82;21003;-67
2022/08/22 22:22:46;;;;;;;45.23;8.08;;;;;;;20.76;100.00;99381.55;1734647;82;21475;-68
2022/08/22 22:25:14;;;;;;;39.70;7.95;;;;;;;20.73;100.00;99378.06;1737866;82;21860;-67
2022/08/22 22:27:41;;;;;;;36.88;7.15;;;;;;;20.71;100.00;99384.53;1725574;82;21550;-68
2022/08/22 22:30:09;;;;;;;41.98;7.28;;;;;;;20.70;100.00;99374.62;1740695;82;21075;-68
2022/08/22 22:32:37;;;;;;;39.92;6.53;;;;;;;20.74;100.00;99378.31;1730568;82;21186;-68
2022/08/22 22:35:04;;;;;;;50.48;8.05;;;;;;;20.73;100.00;99382.22;1737937;81;21040;-67
2022/08/22 22:37:32;;;;;;;37.40;7.17;;;;;;;20.66;100.00;99391.10;1725820;82;21035;-67
2022/08/22 22:40:00;;;;;;;43.08;7.10;;;;;;;20.63;100.00;99388.22;1740473;82;21506;-67
2022/08/22 22:42:26;;;;;;;30.43;6.60;;;;;;;20.61;100.00;99388.59;1739593;82;21015;-67
2022/08/22 22:44:52;;;;;;;35.55;6.95;;;;;;;20.57;100.00;99386.28;1738060;82;21514;-67
2022/08/22 22:47:26;;;;;;;37.67;7.15;;;;;;;20.52;100.00;99392.59;1733082;82;21027;-67
2022/08/22 22:49:53;;;;;;;31.15;6.92;;;;;;;20.42;100.00;99382.81;1740392;82;21055;-67
2022/08/22 22:52:20;;;;;;;29.90;6.40;;;;;;;20.40;100.00;99385.13;1726890;82;21018;-67
2022/08/22 22:54:47;;;;;;;32.88;6.33;;;;;;;20.40;100.00;99385.13;1717590;83;21661;-67
2022/08/22 22:57:13;;;;;;;39.23;7.78;;;;;;;20.38;100.00;99383.27;1728355;82;21015;-67
2022/08/22 22:59:40;;;;;;;30.52;6.45;;;;;;;20.31;100.00;99389.38;1734565;82;21110;-67
2022/08/22 23:02:13;;;;;;;41.63;6.53;;;;;;;20.25;100.00;99389.91;1734521;82;21031;-67
2022/08/22 23:04:42;;;;;;;31.97;6.47;;;;;;;20.21;100.00;99391.18;1741243;82;21575;-67
2022/08/22 23:07:09;;;;;;;33.18;6.85;;;;;;;20.15;100.00;99384.84;1731264;82;21007;-66
2022/08/22 23:09:36;;;;;;;32.08;5.72;;;;;;;20.05;100.00;99385.29;1737611;82;21076;-67
2022/08/22 23:12:03;;;;;;;32.55;6.42;;;;;;;19.96;100.00;99383.99;1727884;82;21031;-66
2022/08/22 23:14:30;;;;;;;30.85;6.40;;;;;;;19.92;100.00;99394.11;1741805;82;21137;-66
2022/08/22 23:16:58;;;;;;;27.85;5.95;;;;;;;19.90;100.00;99392.84;1730487;82;21071;-65
2022/08/22 23:19:24;;;;;;;27.40;5.58;;;;;;;19.88;100.00;99389.03;1733383;82;21118;-66
2022/08/22 23:21:53;;;;;;;27.90;5.75;;;;;;;19.84;100.00;99383.38;1741340;82;20991;-66
2022/08/22 23:24:19;;;;;;;34.20;6.37;;;;;;;19.82;100.00;99400.07;1741092;82;21094;-66
2022/08/22 23:26:45;;;;;;;29.48;6.37;;;;;;;19.79;100.00;99390.52;1725311;82;21554;-66
2022/08/22 23:29:12;;;;;;;29.15;6.22;;;;;;;19.83;100.00;99385.94;1732914;80;21097;-66
2022/08/22 23:31:41;;;;;;;23.98;5.83;;;;;;;19.83;100.00;99391.45;1752541;80;21055;-66
2022/08/22 23:34:13;;;;;;;30.97;5.72;;;;;;;19.84;100.00;99383.95;1728461;82;21055;-65
2022/08/22 23:36:44;;;;;;;27.95;5.55;;;;;;;19.85;100.00;99380.05;1746134;82;21015;-65